• Join FlightAware (Why Join?)
  • Login
  • US Flag 
04:06AM EST


 

Airport Tracker/Info


-or-


 

Live Flight TrackerFlight Track Log ✈ BER6776 ✈ 17-Apr-2013 ✈ EDDL / DUS - EDDN / NUE

Flight Track Log - Related Links

Times and Time Zones

All times are in EDT time to prevent confusion due to time zone crossing. See the BER6776 flight status page for this flight to view local times or setup timezone preferences in your user account.

Time Position Orientation Groundspeed Altitude Reporting Facility
EDT Latitude Longitude Course Direction KTS MPH feet Rate Location/Type
02:57PM 50.6885 8.2941 121° Southeast  Level Estimated
02:58PM 50.6563 8.3734 123° Southeast  Level Estimated
02:59PM 50.6241 8.4526 123° Southeast  Level Estimated
03:00PM 50.5918 8.5317 123° Southeast  Level Estimated
03:01PM 50.5595 8.6107 123° Southeast  Level Estimated
03:02PM 50.5271 8.6895 123° Southeast  Level Estimated
03:03PM 50.4947 8.7683 123° Southeast  Level Estimated
03:04PM 50.4622 8.8469 123° Southeast  Level Estimated
03:05PM 50.4296 8.9255 123° Southeast  Level Estimated
03:06PM 50.3970 9.0039 123° Southeast  Level Estimated
03:07PM 50.3644 9.0822 123° Southeast  Level Estimated
03:08PM 50.3317 9.1604 123° Southeast  Level Estimated
03:09PM 50.2989 9.2385 123° Southeast  Level Estimated
03:10PM 50.2661 9.3165 123° Southeast  Level Estimated
03:11PM 50.2332 9.3944 123° Southeast  Level Estimated
03:12PM 50.2003 9.4722 123° Southeast  Level Estimated
03:13PM 50.1674 9.5499 124° Southeast  Level Estimated
03:14PM 50.1343 9.6274 124° Southeast  Level Estimated
03:15PM 50.1013 9.7049 124° Southeast  Level Estimated
03:16PM 50.0681 9.7823 124° Southeast  Level Estimated
03:17PM 50.0350 9.8595 124° Southeast  Level Estimated
03:18PM 50.0018 9.9367 124° Southeast  Level Estimated
03:19PM 49.9685 10.0137 124° Southeast  Level Estimated
03:20PM 49.9351 10.0906 124° Southeast  Level Estimated
03:21PM 49.9018 10.1674 124° Southeast  Level Estimated
03:22PM 49.8683 10.2441 124° Southeast  Level Estimated
03:23PM 49.8349 10.3208 124° Southeast  Level Estimated
03:24PM 49.8013 10.3973 124° Southeast  Level Estimated
03:25PM 49.7677 10.4736 124° Southeast  Level Estimated
03:26PM 49.7341 10.5499 124° Southeast  Level Estimated
03:27PM 49.7004 10.6261 124° Southeast  Level Estimated
03:28PM 49.6667 10.7022 124° Southeast  Level Estimated
03:29PM 49.6329 10.7782 124° Southeast  Level Estimated
03:30PM 49.5991 10.8541 125° Southeast  Level Estimated
03:31PM 49.5652 10.9298 125° Southeast  Level Estimated
03:32PM 49.5313 11.0055 125° Southeast  Level Estimated
03:33PM 49.4986 11.0781 125° Southeast  Level Estimated
03:34PM 49.4986 11.0781 327° Northwest  Level Estimated
03:35PM 49.4986 11.0781 327° Northwest  Level Estimated